KSVC

Grant County Airport

Silver City, New Mexico, USA
METAR KSVC 211955Z AUTO 28023G30KT 10SM CLR 04/M09 A3002 RMK AO2 T00431090
Observed Flight Rules
Jan-21 @ 19:55 UTC (34 minutes ago) Visual Flight Rules
Wind Visibility Clouds
280° at 23 knots
 Gusting to 30 knots
10 miles
  • Clear skies
Temperatures Readings
Current 4°C / 39°F
Dewpoint -9°C / 16°F
Humidity 39%
Altimeter 30.02" Hg
Pressure 1017 hPa
Elevation 1659
METAR KSVC 211955Z AUTO 28023G30KT 10SM CLR 04/M09 A3002 RMK AO2 T00431090
Observed Flight Rules
Jan-21 @ 19:55 UTC
(34 minutes ago)
VFR
Wind Visibility
280° at 23 knots
 Gusting to 30 knots
10 miles
Clouds
  • Clear skies
Temperature Dewpoint
4°C / 39°F -9°C / 16°F
Humidity Altimeter Pressure
39% 30.02" Hg 1017 hPa